createdAt,value
2023-05-02T00:00:13.489Z,6.30
2023-05-02T00:02:43.395Z,6.10
2023-05-02T00:05:11.695Z,6.43
2023-05-02T00:07:39.892Z,6.10
2023-05-02T00:10:08.802Z,6.03
2023-05-02T00:12:36.845Z,5.20
2023-05-02T00:15:06.307Z,5.17
2023-05-02T00:17:34.448Z,5.73
2023-05-02T00:20:05.009Z,7.33
2023-05-02T00:22:33.090Z,5.60
2023-05-02T00:25:01.080Z,6.63
2023-05-02T00:27:30.595Z,6.50
2023-05-02T00:29:59.736Z,5.87
2023-05-02T00:32:28.750Z,6.80
2023-05-02T00:34:57.121Z,6.30
2023-05-02T00:37:29.480Z,6.00
2023-05-02T00:39:58.213Z,6.87
2023-05-02T00:42:29.322Z,6.20
2023-05-02T00:44:57.408Z,6.77
2023-05-02T00:47:25.532Z,7.20
2023-05-02T00:49:53.623Z,6.97
2023-05-02T00:52:21.964Z,5.43
2023-05-02T00:54:51.774Z,6.30
2023-05-02T00:57:19.869Z,6.17
2023-05-02T00:59:48.010Z,5.67
2023-05-02T01:02:39.161Z,5.70
2023-05-02T01:05:16.789Z,6.20
2023-05-02T01:08:10.052Z,6.20
2023-05-02T01:10:51.216Z,6.53
2023-05-02T01:13:23.254Z,6.90
2023-05-02T01:15:54.475Z,6.73
2023-05-02T01:18:25.111Z,7.40
2023-05-02T01:20:57.981Z,6.33
2023-05-02T01:23:36.475Z,6.73
2023-05-02T01:26:17.448Z,6.30
2023-05-02T01:29:01.653Z,5.90
2023-05-02T01:31:33.950Z,5.60
2023-05-02T01:34:03.471Z,5.90
2023-05-02T01:36:36.258Z,5.90
2023-05-02T01:39:07.375Z,7.03
2023-05-02T01:41:37.757Z,6.83
2023-05-02T01:44:10.391Z,6.40
2023-05-02T01:46:42.897Z,6.80
2023-05-02T01:49:12.527Z,5.50
2023-05-02T01:51:46.636Z,7.00
2023-05-02T01:54:16.274Z,7.03
2023-05-02T01:56:45.548Z,6.27
2023-05-02T01:59:19.352Z,6.50
2023-05-02T02:01:47.859Z,6.87
2023-05-02T02:04:17.564Z,6.23
2023-05-02T02:06:56.962Z,6.40
2023-05-02T02:09:25.057Z,6.77
2023-05-02T02:11:54.968Z,7.10
2023-05-02T02:14:34.682Z,6.60
2023-05-02T02:17:06.250Z,6.77
2023-05-02T02:19:35.424Z,6.30
2023-05-02T02:22:06.124Z,6.27
2023-05-02T02:24:37.628Z,6.53
2023-05-02T02:27:05.696Z,6.67
2023-05-02T02:29:36.740Z,5.80
2023-05-02T02:32:04.910Z,5.80
2023-05-02T02:34:33.056Z,5.53
2023-05-02T02:37:05.962Z,6.00
2023-05-02T02:39:47.423Z,6.47
2023-05-02T02:42:30.908Z,6.10
2023-05-02T02:45:19.947Z,7.17
2023-05-02T02:47:56.298Z,5.80
2023-05-02T02:50:29.317Z,5.53
2023-05-02T02:53:02.181Z,5.50
2023-05-02T02:55:41.627Z,5.77
2023-05-02T02:58:21.131Z,4.63
2023-05-02T03:00:51.711Z,6.33
2023-05-02T03:03:21.638Z,5.20
2023-05-02T03:05:50.159Z,4.83
2023-05-02T03:08:18.304Z,5.20
2023-05-02T03:10:48.585Z,6.07
2023-05-02T03:13:17.789Z,4.80
2023-05-02T03:16:27.751Z,5.20
2023-05-02T03:18:56.380Z,5.27
2023-05-02T03:21:24.492Z,5.70
2023-05-02T03:23:53.600Z,5.27
2023-05-02T03:26:22.194Z,5.67
2023-05-02T03:28:51.460Z,5.00
2023-05-02T03:31:26.941Z,5.13
2023-05-02T03:33:55.496Z,5.30
2023-05-02T03:36:23.901Z,5.27
2023-05-02T03:38:54.739Z,5.47
2023-05-02T03:41:22.958Z,5.37
2023-05-02T03:43:56.817Z,4.40
2023-05-02T03:46:27.986Z,6.50
2023-05-02T03:48:58.756Z,5.37
2023-05-02T03:51:27.796Z,5.37
2023-05-02T03:53:58.445Z,5.07
2023-05-02T03:56:27.076Z,4.30
2023-05-02T03:59:18.745Z,5.27
2023-05-02T04:01:54.755Z,5.63
2023-05-02T04:04:29.231Z,5.57
2023-05-02T04:06:57.318Z,6.27
2023-05-02T04:09:25.748Z,5.20
2023-05-02T04:12:01.392Z,5.47
2023-05-02T04:14:29.435Z,5.67
2023-05-02T04:16:59.969Z,5.30
2023-05-02T04:19:41.445Z,5.20
2023-05-02T04:22:10.175Z,5.43
2023-05-02T04:24:42.280Z,4.43
2023-05-02T04:27:12.438Z,5.50
2023-05-02T04:29:41.793Z,5.00
2023-05-02T04:32:12.909Z,5.40
2023-05-02T04:34:41.473Z,5.13
2023-05-02T04:37:10.484Z,4.53
2023-05-02T04:39:39.562Z,5.13
2023-05-02T04:42:12.740Z,4.13
2023-05-02T04:44:50.048Z,5.00
2023-05-02T04:47:19.980Z,5.70
2023-05-02T04:49:48.108Z,4.53
2023-05-02T04:52:16.202Z,4.97
2023-05-02T04:54:44.388Z,4.23
2023-05-02T04:57:12.646Z,4.87
2023-05-02T04:59:45.418Z,5.20
2023-05-02T05:02:13.574Z,4.77
2023-05-02T05:04:43.784Z,4.70
2023-05-02T05:07:11.786Z,4.80
2023-05-02T05:09:39.895Z,4.67
2023-05-02T05:12:07.940Z,4.50
2023-05-02T05:14:37.660Z,4.93
2023-05-02T05:17:05.711Z,4.80
2023-05-02T05:19:34.411Z,5.50
2023-05-02T05:22:04.461Z,4.90
2023-05-02T05:24:33.506Z,4.37
2023-05-02T05:27:01.836Z,4.60
2023-05-02T05:29:32.770Z,4.87
2023-05-02T05:32:01.219Z,4.67
2023-05-02T05:34:30.988Z,4.70
2023-05-02T05:37:01.888Z,4.40
2023-05-02T05:39:31.483Z,4.30
2023-05-02T05:42:01.462Z,4.80
2023-05-02T05:44:31.687Z,3.90
2023-05-02T05:47:00.694Z,4.23
2023-05-02T05:49:29.415Z,4.00
2023-05-02T05:51:57.824Z,4.17
2023-05-02T05:54:26.085Z,4.07
2023-05-02T05:56:56.188Z,5.00
2023-05-02T05:59:24.654Z,3.77
2023-05-02T06:01:54.199Z,3.93
2023-05-02T06:04:23.896Z,3.47
2023-05-02T06:06:54.786Z,4.27
2023-05-02T06:09:23.098Z,3.63
2023-05-02T06:11:51.690Z,4.20
2023-05-02T06:14:21.180Z,3.80
2023-05-02T06:16:50.914Z,3.87
2023-05-02T06:19:18.952Z,4.50
2023-05-02T06:21:47.780Z,4.97
2023-05-02T06:24:15.774Z,3.37
2023-05-02T06:26:43.711Z,4.33
2023-05-02T06:29:11.750Z,3.50
2023-05-02T06:31:41.230Z,4.00
2023-05-02T06:34:09.262Z,3.60
2023-05-02T06:36:37.225Z,4.00
2023-05-02T06:39:05.559Z,2.90
2023-05-02T06:41:33.606Z,3.90
2023-05-02T06:44:01.600Z,3.30
2023-05-02T06:46:30.911Z,3.07
2023-05-02T06:49:00.469Z,4.37
2023-05-02T06:51:28.725Z,3.47
2023-05-02T06:53:58.302Z,3.57
2023-05-02T06:56:27.190Z,3.27
2023-05-02T06:58:55.212Z,3.57
2023-05-02T07:01:23.459Z,4.20
2023-05-02T07:03:52.930Z,3.63
2023-05-02T07:06:25.124Z,5.03
2023-05-02T07:08:53.632Z,4.00
2023-05-02T07:11:23.597Z,4.30
2023-05-02T07:13:51.891Z,3.90
2023-05-02T07:16:20.054Z,3.73
2023-05-02T07:18:48.017Z,4.17
2023-05-02T07:21:16.133Z,4.47
2023-05-02T07:23:45.922Z,3.50
2023-05-02T07:26:13.919Z,3.70
2023-05-02T07:28:41.833Z,4.00
2023-05-02T07:31:09.844Z,4.13
2023-05-02T07:33:39.747Z,4.00
2023-05-02T07:36:08.274Z,3.83
2023-05-02T07:38:36.289Z,3.60
2023-05-02T07:41:06.191Z,3.90
2023-05-02T07:43:34.245Z,3.17
2023-05-02T07:46:06.143Z,3.47
2023-05-02T07:48:34.861Z,3.13
2023-05-02T07:51:10.765Z,3.50
2023-05-02T07:53:38.891Z,3.73
2023-05-02T07:56:09.598Z,2.53
2023-05-02T07:58:38.028Z,3.57
2023-05-02T08:01:06.309Z,2.63
2023-05-02T08:03:34.616Z,3.17
2023-05-02T08:06:04.022Z,2.50
2023-05-02T08:08:32.043Z,2.50
2023-05-02T08:11:00.334Z,3.13
2023-05-02T08:13:29.667Z,2.80
2023-05-02T08:15:58.361Z,3.57
2023-05-02T08:18:26.669Z,2.60
2023-05-02T08:20:56.380Z,3.53
2023-05-02T08:23:24.352Z,3.60
2023-05-02T08:25:52.367Z,3.20
2023-05-02T08:28:20.345Z,3.53
2023-05-02T08:30:49.736Z,3.00
2023-05-02T08:33:17.861Z,2.67
2023-05-02T08:35:45.948Z,3.27
2023-05-02T08:38:13.936Z,3.07
2023-05-02T08:40:43.086Z,8.50
2023-05-02T08:43:12.662Z,4.20
2023-05-02T08:45:43.024Z,4.60
2023-05-02T08:48:15.026Z,3.97
2023-05-02T08:50:46.654Z,3.60
2023-05-02T08:53:15.386Z,4.00
2023-05-02T08:55:44.161Z,3.13
2023-05-02T08:58:14.679Z,4.10
2023-05-02T09:00:44.125Z,4.53
2023-05-02T09:03:23.780Z,4.10
2023-05-02T09:05:55.259Z,3.70
2023-05-02T09:08:24.307Z,4.80
2023-05-02T09:10:52.621Z,3.90
2023-05-02T09:13:32.002Z,5.47
2023-05-02T09:16:00.970Z,4.40
2023-05-02T09:18:35.359Z,4.10
2023-05-02T09:21:08.947Z,3.80
2023-05-02T09:23:39.365Z,3.70
2023-05-02T09:26:17.417Z,3.87
2023-05-02T09:28:48.905Z,4.30
2023-05-02T09:31:27.005Z,4.53
2023-05-02T09:34:11.937Z,4.27
2023-05-02T09:36:41.711Z,4.43
2023-05-02T09:39:14.601Z,3.93
2023-05-02T09:41:43.708Z,4.43
2023-05-02T09:44:13.139Z,5.70
2023-05-02T09:46:42.881Z,4.97
2023-05-02T09:49:14.615Z,5.50
2023-05-02T09:51:44.017Z,5.83
2023-05-02T09:54:12.324Z,5.30
2023-05-02T09:56:56.798Z,5.80
2023-05-02T09:59:25.948Z,5.33
2023-05-02T10:01:58.783Z,5.63
2023-05-02T10:04:29.423Z,4.87
2023-05-02T10:06:58.726Z,5.90
2023-05-02T10:09:27.993Z,5.30
2023-05-02T10:11:57.900Z,4.53
2023-05-02T10:14:29.529Z,5.80
2023-05-02T10:17:02.655Z,4.53
2023-05-02T10:19:39.623Z,4.60
2023-05-02T10:22:08.953Z,4.50
2023-05-02T10:24:38.714Z,4.53
2023-05-02T10:27:06.968Z,5.20
2023-05-02T10:29:36.143Z,6.50
2023-05-02T10:32:05.621Z,5.37
2023-05-02T10:34:35.800Z,5.13
2023-05-02T10:37:04.264Z,5.13
2023-05-02T10:39:33.723Z,6.00
2023-05-02T10:42:03.871Z,5.60
2023-05-02T10:44:35.513Z,5.37
2023-05-02T10:47:19.985Z,5.13
2023-05-02T10:49:53.867Z,4.33
2023-05-02T10:52:30.147Z,5.37
2023-05-02T10:55:18.057Z,6.60
2023-05-02T10:58:23.726Z,5.27
2023-05-02T11:00:51.892Z,5.67
2023-05-02T11:03:58.192Z,6.00
2023-05-02T11:06:28.465Z,5.40
2023-05-02T11:09:33.506Z,5.53
2023-05-02T11:12:02.484Z,6.07
2023-05-02T11:14:48.769Z,5.50
2023-05-02T11:17:18.546Z,4.67
2023-05-02T11:20:29.125Z,6.07
2023-05-02T11:23:00.880Z,6.83
2023-05-02T11:25:39.974Z,6.70
2023-05-02T11:28:29.130Z,7.97
2023-05-02T11:30:58.002Z,6.10
2023-05-02T11:33:26.174Z,6.27
2023-05-02T11:35:54.226Z,6.33
2023-05-02T11:38:23.957Z,6.30
2023-05-02T11:40:56.898Z,5.53
2023-05-02T11:43:26.390Z,5.63
2023-05-02T11:45:55.446Z,4.60
2023-05-02T11:48:27.154Z,6.70
2023-05-02T11:50:57.466Z,6.80
2023-05-02T11:53:29.253Z,5.87
2023-05-02T11:55:59.296Z,5.03
2023-05-02T11:58:29.871Z,6.30
2023-05-02T12:00:58.129Z,5.50
2023-05-02T12:03:32.767Z,6.50
2023-05-02T12:06:12.250Z,5.50
2023-05-02T12:08:43.812Z,5.90
2023-05-02T12:11:14.574Z,5.40
2023-05-02T12:13:46.774Z,4.20
2023-05-02T12:16:15.369Z,4.97
2023-05-02T12:18:43.816Z,6.50
2023-05-02T12:21:11.999Z,6.53
2023-05-02T12:23:42.945Z,6.00
2023-05-02T12:26:22.515Z,5.80
2023-05-02T12:28:52.173Z,4.97
2023-05-02T12:31:20.847Z,5.67
2023-05-02T12:33:50.774Z,6.10
2023-05-02T12:36:19.539Z,6.20
2023-05-02T12:38:54.388Z,6.20
2023-05-02T12:41:33.313Z,5.83
2023-05-02T12:44:01.647Z,5.77
2023-05-02T12:46:29.876Z,5.80
2023-05-02T12:49:05.768Z,5.13
2023-05-02T12:51:34.612Z,5.40
2023-05-02T12:54:04.246Z,6.03
2023-05-02T12:56:39.411Z,5.23
2023-05-02T12:59:08.209Z,6.37
2023-05-02T13:01:36.748Z,4.73
2023-05-02T13:04:05.701Z,4.40
2023-05-02T13:06:33.935Z,6.00
2023-05-02T13:09:02.895Z,5.07
2023-05-02T13:11:32.460Z,4.60
2023-05-02T13:14:01.423Z,6.03
2023-05-02T13:16:30.412Z,4.70
2023-05-02T13:18:58.724Z,4.50
2023-05-02T13:21:26.750Z,3.77
2023-05-02T13:23:55.461Z,4.43
2023-05-02T13:26:23.487Z,5.03
2023-05-02T13:28:52.883Z,4.30
2023-05-02T13:31:20.922Z,3.93
2023-05-02T13:33:49.946Z,4.63
2023-05-02T13:36:18.047Z,3.37
2023-05-02T13:38:46.558Z,5.03
2023-05-02T13:41:14.511Z,5.33
2023-05-02T13:43:42.651Z,4.43
2023-05-02T13:46:12.002Z,5.07
2023-05-02T13:48:40.172Z,4.87
2023-05-02T13:51:08.476Z,4.50
2023-05-02T13:53:36.789Z,4.60
2023-05-02T13:56:05.024Z,4.90
2023-05-02T13:58:33.052Z,4.50
2023-05-02T14:01:01.205Z,4.53
2023-05-02T14:03:30.733Z,4.77
2023-05-02T14:05:58.877Z,4.33
2023-05-02T14:08:27.794Z,3.63
2023-05-02T14:10:55.971Z,4.43
2023-05-02T14:13:24.625Z,4.97
2023-05-02T14:15:52.841Z,3.57
2023-05-02T14:18:21.504Z,3.70
2023-05-02T14:20:50.900Z,4.77
2023-05-02T14:23:18.876Z,5.23
2023-05-02T14:25:46.935Z,5.27
2023-05-02T14:28:15.157Z,5.80
2023-05-02T14:30:43.127Z,5.70
2023-05-02T14:33:11.361Z,5.60
2023-05-02T14:35:39.359Z,6.13
2023-05-02T14:38:08.735Z,5.33
2023-05-02T14:40:36.857Z,6.50
2023-05-02T14:43:05.058Z,4.67
2023-05-02T14:45:33.149Z,3.80
2023-05-02T14:48:01.160Z,3.90
2023-05-02T14:50:29.220Z,3.77
2023-05-02T14:52:57.179Z,3.80
2023-05-02T14:55:26.444Z,4.57
2023-05-02T14:57:55.532Z,4.50
2023-05-02T15:00:24.399Z,3.90
2023-05-02T15:02:52.547Z,3.50
2023-05-02T15:05:20.907Z,3.60
2023-05-02T15:07:49.321Z,3.20
2023-05-02T15:10:17.286Z,3.50
2023-05-02T15:12:50.694Z,3.80
2023-05-02T15:15:18.753Z,4.50
2023-05-02T15:17:46.914Z,3.80
2023-05-02T15:20:14.862Z,4.30
2023-05-02T15:22:42.814Z,3.90
2023-05-02T15:25:11.234Z,4.60
2023-05-02T15:27:39.353Z,4.33
2023-05-02T15:30:10.028Z,4.63
2023-05-02T15:32:38.018Z,3.83
2023-05-02T15:35:07.904Z,3.80
2023-05-02T15:37:36.062Z,3.27
2023-05-02T15:40:05.119Z,2.70
2023-05-02T15:42:36.898Z,3.37
2023-05-02T15:45:06.133Z,2.70
2023-05-02T15:47:35.500Z,3.50
2023-05-02T15:50:04.307Z,3.00
2023-05-02T15:52:32.536Z,2.90
2023-05-02T15:55:01.648Z,3.87
2023-05-02T15:57:29.762Z,4.17
2023-05-02T15:59:57.747Z,3.50
2023-05-02T16:02:26.055Z,3.63
2023-05-02T16:04:55.385Z,3.93
2023-05-02T16:07:23.393Z,4.07
2023-05-02T16:09:51.330Z,3.70
2023-05-02T16:12:19.317Z,3.40
2023-05-02T16:14:47.741Z,4.60
2023-05-02T16:17:16.142Z,4.90
2023-05-02T16:19:44.550Z,4.20
2023-05-02T16:22:13.921Z,3.77
2023-05-02T16:24:42.815Z,5.07
2023-05-02T16:27:10.976Z,5.10
2023-05-02T16:29:39.009Z,5.77
2023-05-02T16:32:08.207Z,5.53
2023-05-02T16:34:37.239Z,5.50
2023-05-02T16:37:05.863Z,5.40
2023-05-02T16:39:35.979Z,4.80
2023-05-02T16:42:04.173Z,5.37
2023-05-02T16:44:32.291Z,6.40
2023-05-02T16:47:00.621Z,5.13
2023-05-02T16:49:28.696Z,5.70
2023-05-02T16:51:56.732Z,5.47
2023-05-02T16:54:24.812Z,5.07
2023-05-02T16:56:54.328Z,5.17
2023-05-02T16:59:22.311Z,5.33
2023-05-02T17:01:50.704Z,4.90
2023-05-02T17:04:18.801Z,5.97
2023-05-02T17:06:47.749Z,9.87
2023-05-02T17:09:16.295Z,10.07
2023-05-02T17:11:44.505Z,9.70
2023-05-02T17:14:14.421Z,10.57
2023-05-02T17:16:42.493Z,9.47
2023-05-02T17:19:10.520Z,11.00
2023-05-02T17:21:38.813Z,9.57
2023-05-02T17:24:07.427Z,9.27
2023-05-02T17:26:35.545Z,10.07
2023-05-02T17:29:03.527Z,8.30
2023-05-02T17:31:32.988Z,7.13
2023-05-02T17:34:00.974Z,6.43
2023-05-02T17:36:29.111Z,6.67
2023-05-02T17:38:57.150Z,7.23
2023-05-02T17:41:25.173Z,6.00
2023-05-02T17:43:53.198Z,6.07
2023-05-02T17:46:21.672Z,5.93
2023-05-02T17:48:52.064Z,5.40
2023-05-02T17:51:20.044Z,5.97
2023-05-02T17:53:48.516Z,6.00
2023-05-02T17:56:18.731Z,6.80
2023-05-02T17:58:47.213Z,5.80
2023-05-02T18:01:17.648Z,5.33
2023-05-02T18:03:47.493Z,4.20
2023-05-02T18:06:19.965Z,6.30
2023-05-02T18:08:47.986Z,4.37
2023-05-02T18:11:17.481Z,6.13
2023-05-02T18:13:46.322Z,6.20
2023-05-02T18:16:14.769Z,5.63
2023-05-02T18:18:42.899Z,6.30
2023-05-02T18:21:11.560Z,6.10
2023-05-02T18:23:41.333Z,4.33
2023-05-02T18:26:13.452Z,4.70
2023-05-02T18:28:44.483Z,5.53
2023-05-02T18:31:18.948Z,5.80
2023-05-02T18:33:47.672Z,5.80
2023-05-02T18:36:19.313Z,6.27
2023-05-02T18:38:48.770Z,5.77
2023-05-02T18:41:18.355Z,6.27
2023-05-02T18:43:46.570Z,4.97
2023-05-02T18:46:14.651Z,5.80
2023-05-02T18:48:42.696Z,5.90
2023-05-02T18:51:10.830Z,5.00
2023-05-02T18:53:39.025Z,4.33
2023-05-02T18:56:14.696Z,4.80
2023-05-02T18:58:43.072Z,4.50
2023-05-02T19:01:15.073Z,4.60
2023-05-02T19:03:43.787Z,5.20
2023-05-02T19:06:12.214Z,5.00
2023-05-02T19:08:40.883Z,6.60
2023-05-02T19:11:09.214Z,6.87
2023-05-02T19:13:39.087Z,4.77
2023-05-02T19:16:11.303Z,4.07
2023-05-02T19:18:39.572Z,5.00
2023-05-02T19:21:13.567Z,5.40
2023-05-02T19:23:42.877Z,4.63
2023-05-02T19:26:12.611Z,5.03
2023-05-02T19:28:42.384Z,5.50
2023-05-02T19:31:11.508Z,5.53
2023-05-02T19:33:40.839Z,5.43
2023-05-02T19:36:09.580Z,5.60
2023-05-02T19:38:37.979Z,4.50
2023-05-02T19:41:06.159Z,5.93
2023-05-02T19:43:34.587Z,5.50
2023-05-02T19:46:04.024Z,4.70
2023-05-02T19:48:32.138Z,5.33
2023-05-02T19:51:02.581Z,4.47
2023-05-02T19:53:30.828Z,5.10
2023-05-02T19:55:59.212Z,4.77
2023-05-02T19:58:27.516Z,6.77
2023-05-02T20:00:55.794Z,6.90
2023-05-02T20:03:25.313Z,6.60
2023-05-02T20:05:55.365Z,5.03
2023-05-02T20:08:27.498Z,4.73
2023-05-02T20:10:55.502Z,4.77
2023-05-02T20:13:23.629Z,3.93
2023-05-02T20:15:51.886Z,4.90
2023-05-02T20:18:20.197Z,4.93
2023-05-02T20:20:49.568Z,6.03
2023-05-02T20:23:17.603Z,4.20
2023-05-02T20:25:45.669Z,6.00
2023-05-02T20:28:19.780Z,5.50
2023-05-02T20:30:47.846Z,6.50
2023-05-02T20:33:17.106Z,6.23
2023-05-02T20:35:46.512Z,5.77
2023-05-02T20:38:17.697Z,6.10
2023-05-02T20:40:45.853Z,6.87
2023-05-02T20:43:14.310Z,4.87
2023-05-02T20:45:42.504Z,5.77
2023-05-02T20:48:10.653Z,5.70
2023-05-02T20:50:38.737Z,6.23
2023-05-02T20:53:06.728Z,5.37
2023-05-02T20:55:36.673Z,6.50
2023-05-02T20:58:04.994Z,5.30
2023-05-02T21:00:32.954Z,5.97
2023-05-02T21:03:01.300Z,5.43
2023-05-02T21:05:29.358Z,5.60
2023-05-02T21:07:57.360Z,5.40
2023-05-02T21:10:27.658Z,6.37
2023-05-02T21:12:57.170Z,4.90
2023-05-02T21:15:25.227Z,5.60
2023-05-02T21:18:01.634Z,5.47
2023-05-02T21:20:30.138Z,5.67
2023-05-02T21:22:58.454Z,6.90
2023-05-02T21:25:26.596Z,4.77
2023-05-02T21:27:56.427Z,6.70
2023-05-02T21:30:24.779Z,7.10
2023-05-02T21:32:52.918Z,5.60
2023-05-02T21:35:21.433Z,5.37
2023-05-02T21:37:49.451Z,5.57
2023-05-02T21:40:17.670Z,5.47
2023-05-02T21:42:45.823Z,4.73
2023-05-02T21:45:15.891Z,5.23
2023-05-02T21:47:44.658Z,4.80
2023-05-02T21:50:13.916Z,5.50
2023-05-02T21:52:43.000Z,5.40
2023-05-02T21:55:11.446Z,5.17
2023-05-02T21:57:39.705Z,4.40
2023-05-02T22:00:10.498Z,5.30
2023-05-02T22:02:40.125Z,4.77
2023-05-02T22:05:09.091Z,5.00
2023-05-02T22:07:37.516Z,5.50
2023-05-02T22:10:06.661Z,5.03
2023-05-02T22:12:35.066Z,5.07
2023-05-02T22:15:15.647Z,5.23
2023-05-02T22:17:52.911Z,4.20
2023-05-02T22:20:22.121Z,5.30
2023-05-02T22:22:50.167Z,5.50
2023-05-02T22:25:23.658Z,5.13
2023-05-02T22:27:52.144Z,5.10
2023-05-02T22:30:20.589Z,5.47
2023-05-02T22:32:50.137Z,4.60
2023-05-02T22:35:18.440Z,5.80
2023-05-02T22:37:46.637Z,5.70
2023-05-02T22:40:15.382Z,5.87
2023-05-02T22:42:43.457Z,6.50
2023-05-02T22:45:13.573Z,6.33
2023-05-02T22:47:41.767Z,8.00
2023-05-02T22:50:11.599Z,6.30
2023-05-02T22:52:39.758Z,6.40
2023-05-02T22:55:09.408Z,6.97
2023-05-02T22:57:37.668Z,7.10
2023-05-02T23:00:07.700Z,6.43
2023-05-02T23:02:35.819Z,7.57
2023-05-02T23:05:04.266Z,6.83
2023-05-02T23:07:34.167Z,6.67
2023-05-02T23:10:02.543Z,6.53
2023-05-02T23:12:30.850Z,5.90
2023-05-02T23:14:59.035Z,7.37
2023-05-02T23:17:27.054Z,6.63
2023-05-02T23:19:55.207Z,5.77
2023-05-02T23:22:23.219Z,6.60
2023-05-02T23:24:52.635Z,6.27
2023-05-02T23:27:20.770Z,5.37
2023-05-02T23:29:49.188Z,4.27
2023-05-02T23:32:17.802Z,4.10
2023-05-02T23:34:46.135Z,4.20
2023-05-02T23:37:14.491Z,3.80
2023-05-02T23:39:42.564Z,3.47
2023-05-02T23:42:12.040Z,3.63
2023-05-02T23:44:40.254Z,3.00
2023-05-02T23:47:08.358Z,3.10
2023-05-02T23:49:37.337Z,2.80
2023-05-02T23:52:05.760Z,2.80
2023-05-02T23:54:35.515Z,3.10
2023-05-02T23:57:03.546Z,2.97
2023-05-02T23:59:33.026Z,3.23
